Point Leamington, Canada
Current Conditions -  °F | °C
As of 8:00 AM on Sunday 23 Nov 2014 (Local Time) from CYQX Reporting Station
Overcast Overcast  
Wind Chill: 19°   Ceiling: 2200
Heat Index: 30°   Visibility: 15mi
Dew Point: 23°   Wind: 16mph
Humidity: 75%   Direction: 250°WSW
Pressure: 29.6"   Gusts: 26mph
Location:  49.32°N, 55.4°W
Report Text: CYQX 231100Z 25014G23KT 15SM BKN022 BKN048 OVC120 M01/M05 A2960 RMK SC5SC2AC1 SLP033
Loading
Personal Weather Stations






























Interactive Weather Map New forecast layout! Learn more

10-Day Weather Forecast

Advertisements
Track Severe Weather on mobile